Central Oregon RPC :: PAISLEY A

liberation: 2020-08-08  06:45     latitude: 42.711350     longitude: -120.560250 129 birds
# LOFT PRING MILES ARRIVAL SPEED ToWin
1 RIMROCK FLYERS AU20-CORP-4208 113.362 2020-08-08 09:22:14.761 1402.626 00:00:00
2 RIMROCK FLYERS AU20-CORP-4207 113.362 2020-08-08 09:22:27.031 1400.612 00:00:12
3 TOPIGEONUSA AU20-CORP-4310 116.048 2020-08-08 09:26:41.556 1392.332 00:01:05
4 ROCKY TOP AU20-CORP-4422 108.983 2020-08-08 09:18:11.363 1388.025 00:01:26
5 ROCKY TOP AU20-CORP-4420 108.983 2020-08-08 09:18:12.298 1387.869 00:01:27
6 ROCKY TOP AU20-CORP-4441 108.983 2020-08-08 09:18:15.191 1387.385 00:01:30
7 ROCKY TOP AU20-CORP-4413 108.983 2020-08-08 09:18:15.818 1387.280 00:01:31
8 ROCKY TOP AU20-CORP-4415 108.983 2020-08-08 09:18:16.890 1387.101 00:01:32
9 ROCKY TOP AU20-CORP-4440 108.983 2020-08-08 09:18:17.261 1387.039 00:01:32
10 ROCKY TOP AU20-PNW-2501 108.983 2020-08-08 09:18:18.776 1386.785 00:01:34
11 ROCKY TOP AU20-CORP-4474 108.983 2020-08-08 09:18:19.147 1386.723 00:01:34
12 ROCKY TOP AU20-CORP-4431 108.983 2020-08-08 09:18:19.283 1386.701 00:01:34
13 ROCKY TOP AU20-CORP-4435 108.983 2020-08-08 09:18:20.492 1386.499 00:01:35
14 ROCKY TOP AU20-CORP-4424 108.983 2020-08-08 09:18:22.112 1386.228 00:01:37
15 ROCKY TOP AU20-CORP-4446 108.983 2020-08-08 09:18:23.540 1385.990 00:01:38
16 ROCKY TOP AU20-CORP-4462 108.983 2020-08-08 09:18:27.060 1385.402 00:01:42
17 STEELE LOFT AU20-CORP-5002 116.355 2020-08-08 09:28:21.804 1380.292 00:02:22
18 STEELE LOFT AU20-BORD-20069 116.355 2020-08-08 09:28:23.879 1379.970 00:02:24
19 STEELE LOFT AU20-BORD-20054 116.355 2020-08-08 09:28:25.736 1379.682 00:02:26
20 STEELE LOFT AU20-CORP-5082 116.355 2020-08-08 09:28:35.028 1378.244 00:02:35
21 TOPIGEONUSA AU20-CORP-4897 116.048 2020-08-08 09:28:14.699 1377.752 00:02:38
22 STEELE LOFT AU20-CORP-5022 116.355 2020-08-08 09:29:42.094 1367.954 00:03:42
23 STEELE LOFT AU20-CORP-5026 116.355 2020-08-08 09:30:06.605 1364.231 00:04:07
24 RUETER FAMILY LOFT AU20-CORP-4571 143.014 2020-08-08 10:04:47.198 1362.138 00:05:20
25 RUETER FAMILY LOFT AU20-CORP-4589 143.014 2020-08-08 10:05:00.620 1360.491 00:05:33
26 HENDRICKSON FAMILY LOFT AU20-ARPU-28120 113.192 2020-08-08 09:27:10.254 1353.651 00:05:08
27 RIMROCK FLYERS AU20-CORP-4211 113.362 2020-08-08 09:27:26.619 1353.181 00:05:12
28 HENDRICKSON FAMILY LOFT AU20-CORP-5289 113.192 2020-08-08 09:27:15.246 1352.886 00:05:13
29 HENDRICKSON FAMILY LOFT IF20-EART-0018 113.192 2020-08-08 09:27:17.681 1352.514 00:05:16
30 HENDRICKSON FAMILY LOFT AU20-CORP-5251 113.192 2020-08-08 09:27:34.742 1349.908 00:05:33
31 AMERICAN LOFT AU20-CORP-5479 113.112 2020-08-08 09:28:01.373 1344.903 00:06:05
32 AMERICAN LOFT AU20-CORP-5439 113.112 2020-08-08 09:28:03.304 1344.611 00:06:07
33 AMERICAN LOFT AU20-CORP-5443 113.112 2020-08-08 09:28:03.933 1344.516 00:06:08
34 AMERICAN LOFT AU20-CORP-5442 113.112 2020-08-08 09:28:06.621 1344.109 00:06:11
35 AMERICAN LOFT AU20-CORP-5427 113.112 2020-08-08 09:28:08.656 1343.801 00:06:13
36 HENDRICKSON FAMILY LOFT AU20-CORP-5290 113.192 2020-08-08 09:28:15.327 1343.749 00:06:13
37 AMERICAN LOFT AU20-CORP-5433 113.112 2020-08-08 09:28:09.027 1343.745 00:06:13
38 AMERICAN LOFT AU20-CORP-5482 113.112 2020-08-08 09:28:17.404 1342.480 00:06:22
39 RIMROCK FLYERS AU20-CORP-4202 113.362 2020-08-08 09:28:52.882 1340.114 00:06:38
40 TIM GRAVES AU20-CORP-4701 107.552 2020-08-08 09:21:34.886 1336.979 00:06:38
41 HENDRICKSON FAMILY LOFT AU20-CORP-5278 113.192 2020-08-08 09:30:10.388 1326.589 00:08:08
42 RUETER FAMILY LOFT AU20-CORP-4550 143.014 2020-08-08 10:10:24.598 1321.911 00:10:57
43 RUETER FAMILY LOFT AU20-CORP-4536 143.014 2020-08-08 10:10:29.648 1321.327 00:11:02
44 RUETER FAMILY LOFT AU20-CORP-4537 143.014 2020-08-08 10:10:45.735 1319.470 00:11:19
45 TIM GRAVES AU20-CORP-4716 107.552 2020-08-08 09:23:39.507 1317.649 00:08:42
46 RUETER FAMILY LOFT AU20-CORP-4588 143.014 2020-08-08 10:11:08.640 1316.834 00:11:41
47 RUETER FAMILY LOFT AU20-CORP-4551 143.014 2020-08-08 10:11:09.462 1316.740 00:11:42
48 RUETER FAMILY LOFT AU20-CORP-4507 143.014 2020-08-08 10:11:15.275 1316.073 00:11:48
49 RUETER FAMILY LOFT AU20-CORP-4621 143.014 2020-08-08 10:11:22.924 1315.196 00:11:56
50 RUETER FAMILY LOFT AU20-CORP-4568 143.014 2020-08-08 10:11:34.364 1313.887 00:12:07
51 RUETER FAMILY LOFT AU20-CORP-4531 143.014 2020-08-08 10:12:36.866 1306.781 00:13:10
52 RUETER FAMILY LOFT AU20-CORP-4555 143.014 2020-08-08 10:13:35.902 1300.140 00:14:09
53 TIM GRAVES AU20-CORP-4727 107.552 2020-08-08 09:27:00.602 1287.609 00:12:03
54 TIM GRAVES AU20-CORP-4735 107.552 2020-08-08 09:27:08.697 1286.428 00:12:11
55 TOPIGEONUSA AU20-CORP-4858 116.048 2020-08-08 09:39:36.176 1279.706 00:13:59
56 TOPIGEONUSA AU20-CORP-4868 116.048 2020-08-08 09:40:26.510 1273.015 00:14:50
57 TOPIGEONUSA AU20-CORP-4391 116.048 2020-08-08 09:40:51.517 1269.716 00:15:15
58 TIM GRAVES AU20-CORP-4733 107.552 2020-08-08 09:29:41.902 1264.486 00:14:45
59 TIM GRAVES AU20-CORP-4722 107.552 2020-08-08 09:29:43.201 1264.303 00:14:46
60 TIM GRAVES AU20-CORP-4717 107.552 2020-08-08 09:29:43.744 1264.226 00:14:46
61 STEELE LOFT AU20-JEDD-14774 116.355 2020-08-08 09:42:00.677 1264.016 00:16:01
62 STEELE LOFT AU20-CORP-5032 116.355 2020-08-08 09:42:02.997 1263.714 00:16:03
63 TIM GRAVES AU20-CORP-4731 107.552 2020-08-08 09:29:58.457 1262.159 00:15:01
64 HENDRICKSON FAMILY LOFT AU20-CORP-5291 113.192 2020-08-08 09:38:17.269 1258.581 00:16:15
65 HENDRICKSON FAMILY LOFT AU20-CORP-5282 113.192 2020-08-08 09:38:22.335 1257.910 00:16:20
66 HENDRICKSON FAMILY LOFT AU20-CORP-5260 113.192 2020-08-08 09:38:22.920 1257.833 00:16:21
67 TIM GRAVES AU20-CORP-4714 107.552 2020-08-08 09:30:47.172 1255.363 00:15:50
68 STEELE LOFT AU20-BORD-20070 116.355 2020-08-08 09:44:22.919 1245.786 00:18:23
69 TOPIGEONUSA AU20-CORP-4880 116.048 2020-08-08 09:44:32.527 1241.292 00:18:56
70 TOPIGEONUSA AU20-CORP-4855 116.048 2020-08-08 09:44:46.019 1239.598 00:19:09
71 TOPIGEONUSA AU20-CORP-4870 116.048 2020-08-08 09:44:46.399 1239.550 00:19:09
72 TOPIGEONUSA AU20-CORP-4867 116.048 2020-08-08 09:44:48.090 1239.338 00:19:11
73 TOPIGEONUSA AU20-CORP-4866 116.048 2020-08-08 09:44:51.898 1238.861 00:19:15
74 HENDRICKSON FAMILY LOFT AU20-CORP-5259 113.192 2020-08-08 09:41:13.149 1235.697 00:19:11
75 HENDRICKSON FAMILY LOFT AU20-CORP-5267 113.192 2020-08-08 09:41:56.601 1230.171 00:19:55
76 RIMROCK FLYERS AU20-CORP-4212 113.362 2020-08-08 09:42:39.564 1226.600 00:20:25
77 ROCKY TOP AU20-CORP-4451 108.983 2020-08-08 09:37:16.318 1219.609 00:20:31
78 STEELE LOFT AU20-CORP-5012 116.355 2020-08-08 09:48:24.134 1216.046 00:22:24
79 STEELE LOFT IF20-EART-0054 116.355 2020-08-08 09:48:27.072 1215.692 00:22:27
80 AMERICAN LOFT AU20-CORP-5449 113.112 2020-08-08 09:44:24.111 1210.914 00:22:28
81 STEELE LOFT AU20-CORP-5005 116.355 2020-08-08 09:59:56.152 1138.099 00:33:56
82 TOPIGEONUSA AU20-CORP-4882 116.048 2020-08-08 10:00:21.004 1132.491 00:34:44
83 TOPIGEONUSA AU20-CORP-4311 116.048 2020-08-08 10:00:28.369 1131.721 00:34:51
84 STEELE LOFT AU20-CORP-5080 116.355 2020-08-08 10:01:20.326 1129.294 00:35:20
85 AMERICAN LOFT AU20-CORP-5413 113.112 2020-08-08 09:57:00.484 1124.674 00:35:05
86 AMERICAN LOFT AU20-CORP-5424 113.112 2020-08-08 10:01:44.055 1095.426 00:39:48
87 AMERICAN LOFT AU20-CORP-5485 113.112 2020-08-08 10:02:59.354 1087.913 00:41:03
88 TOPIGEONUSA AU20-CORP-4861 116.048 2020-08-08 10:12:11.434 1062.720 00:46:34
89 TIM GRAVES AU20-CORP-4723 107.552 2020-08-08 09:59:13.927 1056.125 00:44:17
90 AMERICAN LOFT AU20-CORP-5438 113.112 2020-08-08 10:08:30.508 1056.061 00:46:35
91 TIM GRAVES AU20-CORP-4711 107.552 2020-08-08 09:59:20.746 1055.455 00:44:23
92 TOPIGEONUSA AU20-CORP-4873 116.048 2020-08-08 10:17:25.998 1034.500 00:51:49
93 RIMROCK FLYERS AU20-CORP-4753 113.362 2020-08-08 10:15:08.202 1022.452 00:52:53
94 JACKSONS LOFT AU20-CORP-4667 87.585 2020-08-08 09:31:26.040 1017.935 00:41:32
95 TIM GRAVES AU20-CORP-4729 107.552 2020-08-08 10:09:37.483 998.243 00:54:40
96 TOPIGEONUSA AU20-CORP-4371 116.048 2020-08-08 10:27:36.476 983.801 01:02:00
97 AMERICAN LOFT AU20-CORP-5576 113.112 2020-08-08 10:38:51.034 909.646 01:16:55
98 TIM GRAVES AU20-CORP-4730 107.552 2020-08-08 10:45:25.629 839.701 01:30:28
99 RUETER FAMILY LOFT AU20-CORP-4625 143.014 2020-08-08 12:07:20.045 818.995 02:07:53
100 RUETER FAMILY LOFT AU20-CORP-4587 143.014 2020-08-08 12:25:51.848 772.423 02:26:25
101 RIMROCK FLYERS AU20-CORP-4751 113.362 2020-08-08 11:19:28.360 768.936 01:57:14
102 RIMROCK FLYERS AU20-CORP-4755 113.362 2020-08-08 11:23:49.620 756.245 02:01:35
103 HENDRICKSON FAMILY LOFT AU20-ARPU-28121 113.192 2020-08-08 11:29:53.042 738.162 02:07:51
104 AMERICAN LOFT AU20-CORP-5456 113.112 2020-08-08 11:40:57.483 708.563 02:19:02
105 ROCKY TOP AU20-PNW-2506 108.983 2020-08-08 11:31:40.533 706.027 02:14:55
106 JACKSONS LOFT AU20-CORP-5526 87.585 2020-08-08 10:47:15.640 678.296 01:57:22
107 RIMROCK FLYERS AU20-CORP-4205 113.362 2020-08-08 12:18:40.660 626.081 02:56:26
108 RIMROCK FLYERS AU20-CORP-4760 113.362 2020-08-08 12:45:48.609 576.958 03:23:34
109 TIM GRAVES AU20-CORP-4732 107.552 2020-08-08 12:59:30.243 526.535 03:44:33
110 HENDRICKSON FAMILY LOFT AU20-CORP-5286 113.192 2020-08-08 13:23:33.008 519.406 04:01:31
111 RIMROCK FLYERS AU20-CORP-4201 113.362 2020-08-08 14:42:39.969 431.235 05:20:25
112 RIMROCK FLYERS AU20-CORP-4204 113.362 2020-08-08 16:11:29.320 361.781 06:49:15
113 JACKSONS LOFT AU20-CORP-4644 87.585 2020-08-08 15:27:06.639 303.977 06:37:13
114 JACKSONS LOFT AU20-CORP-5523 87.585 2020-08-08 15:27:18.273 303.861 06:37:24
115 JACKSONS LOFT AU20-CORP-5200 87.585 2020-08-08 15:33:24.272 300.251 06:43:30
116 JACKSONS LOFT AU20-CORP-4665 87.585 2020-08-08 18:01:39.284 232.977 09:11:45
117 JACKSONS LOFT AU20-CORP-5470 87.585 2020-08-08 18:01:47.457 232.929 09:11:53
118 RIMROCK FLYERS AU20-CORP-4759 113.362 2020-08-09 10:05:03.702 182.165 15:53:01
119 STEELE LOFT IF20-EART-0055 116.355 2020-08-09 10:52:54.363 179.148 16:37:06
120 JACKSONS LOFT AU20-CORP-5538 87.585 2020-08-09 10:47:57.357 135.438 17:08:15
AMERICAN LOFT AU20-CORP-5406 0 0000-00-00 00:00:00.000 0.000 00:00:00
HENDRICKSON FAMILY LOFT AU20-CORP-5284 0 0000-00-00 00:00:00.000 0.000 00:00:00
HENDRICKSON FAMILY LOFT IF20-EART-0026 0 0000-00-00 00:00:00.000 0.000 00:00:00
RIMROCK FLYERS AU20-CORP-4750 0 0000-00-00 00:00:00.000 0.000 00:00:00
RUETER FAMILY LOFT AU20-CORP-4527 0 0000-00-00 00:00:00.000 0.000 00:00:00
STEELE LOFT AU20-JEDD-14782 0 0000-00-00 00:00:00.000 0.000 00:00:00
TIM GRAVES AU20-CORP-4739 0 0000-00-00 00:00:00.000 0.000 00:00:00
TIM GRAVES AU20-CORP-4743 0 0000-00-00 00:00:00.000 0.000 00:00:00
TOPIGEONUSA AU20-CORP-4839 0 0000-00-00 00:00:00.000 0.000 00:00:00